메인 페이지
METAR-TAF:

METAR-TAF

공항 :

리예파야, 라트비아

위도: 56-31N, 경도: 021-05E, 고도: 5m

현재 날씨관측

예보는 30분 전, 12:20시(UTC)에 발표되었습니다.
서남서8kt
온도 21°C
습도 69%
기압 1012 hPa
시정 10km 이상
1500m 미만 상공 구름 및 적란운 없음

METAR: EVLA 241220Z AUTO 25008KT CAVOK 21/15 Q1012

시각: 15:50 (12:50 UTC)

예보

예보는 1 시간 45분 전, 11:05시(UTC)에 발표되었습니다.
예보 대상 시간: 24일 12시부터 25일 12시까지 (UTC)
5kt
시정 10km 이상
고도 3000ft 상공 구름 조금
일시적
24일 22시부터 25일 03시까지 (UTC)
시정: 4000m
고도 900ft 상공 구름 많음
고도 2000ft 상공 구름 많음, 적란운.
약한소나기
확률 40% :
일시적
24일 22시부터 25일 03시까지 (UTC)
뇌우
일시적
25일 03시부터 25일 09시까지 (UTC)
고도 1200ft 상공 구름 많음

TAF: EVLA 241105Z 2412/2512 26005KT 9999 FEW030 TEMPO 2422/2503 4000 -SHRA BKN009 BKN020CB PROB40 TEMPO 2422/2503 TS TEMPO 2503/2509 BKN012

4,000개 이상의 공항 관측 자료 및 예보 (METAR 및 TAF 보고).

지도상에서 검색 가능한 기상관측소가 노란 점과 빨간 점으로 표시되어 있습니다.

기상관측소 명을 보려면 표시 위로 마우스를 이동하세요.

날씨 관측과 예보를 보려면 클릭하세요.

지도 변경 : 확대하려면 엑스 표시가 있는 녹색 버튼, 축소하려면 빼기 표시가 있는 녹색 버튼, 다음 페이지의 지도를 보려면 녹색 화살표를 클릭하세요.


METAR-TAF: